createdAt,value
2022-09-22T00:01:35.602Z,6.07
2022-09-22T00:04:20.269Z,6.47
2022-09-22T00:06:51.442Z,6.15
2022-09-22T00:09:21.937Z,6.07
2022-09-22T00:11:51.917Z,5.90
2022-09-22T00:14:21.869Z,5.95
2022-09-22T00:16:52.478Z,5.50
2022-09-22T00:19:25.086Z,5.40
2022-09-22T00:21:53.880Z,5.55
2022-09-22T00:24:23.637Z,5.32
2022-09-22T00:26:53.523Z,5.20
2022-09-22T00:29:22.113Z,5.72
2022-09-22T00:31:50.271Z,6.32
2022-09-22T00:34:20.614Z,5.78
2022-09-22T00:36:50.588Z,5.70
2022-09-22T00:39:19.572Z,5.60
2022-09-22T00:41:49.630Z,5.20
2022-09-22T00:44:37.208Z,5.40
2022-09-22T00:47:16.338Z,5.13
2022-09-22T00:49:51.988Z,5.35
2022-09-22T00:52:25.561Z,5.68
2022-09-22T00:54:58.197Z,5.43
2022-09-22T00:57:29.378Z,5.50
2022-09-22T00:59:57.377Z,5.35
2022-09-22T01:02:25.766Z,5.72
2022-09-22T01:04:56.631Z,6.13
2022-09-22T01:07:30.040Z,6.63
2022-09-22T01:09:59.612Z,6.18
2022-09-22T01:12:30.138Z,6.63
2022-09-22T01:15:18.031Z,7.32
2022-09-22T01:17:54.574Z,7.55
2022-09-22T01:20:51.048Z,7.88
2022-09-22T01:23:53.850Z,8.25
2022-09-22T01:27:02.212Z,8.82
2022-09-22T01:30:08.648Z,9.63
2022-09-22T01:32:43.888Z,9.38
2022-09-22T01:35:21.390Z,9.45
2022-09-22T01:37:57.658Z,9.32
2022-09-22T01:40:31.435Z,9.75
2022-09-22T01:43:08.869Z,9.20
2022-09-22T01:45:39.126Z,9.57
2022-09-22T01:48:15.340Z,10.45
2022-09-22T01:50:47.530Z,11.25
2022-09-22T01:53:20.254Z,10.95
2022-09-22T01:55:52.596Z,11.52
2022-09-22T01:58:28.210Z,11.07
2022-09-22T02:00:59.606Z,10.13
2022-09-22T02:03:36.726Z,10.60
2022-09-22T02:06:11.161Z,10.88
2022-09-22T02:08:45.778Z,10.77
2022-09-22T02:11:16.738Z,10.55
2022-09-22T02:13:48.758Z,10.38
2022-09-22T02:16:19.822Z,10.35
2022-09-22T02:18:52.514Z,9.70
2022-09-22T02:21:22.048Z,9.90
2022-09-22T02:23:50.793Z,9.50
2022-09-22T02:26:45.104Z,9.18
2022-09-22T02:29:13.422Z,9.55
2022-09-22T02:31:41.951Z,10.00
2022-09-22T02:34:12.570Z,9.68
2022-09-22T02:36:51.048Z,10.13
2022-09-22T02:39:28.704Z,9.75
2022-09-22T02:42:15.437Z,9.88
2022-09-22T02:44:49.399Z,10.07
2022-09-22T02:47:27.206Z,11.00
2022-09-22T02:49:57.964Z,10.70
2022-09-22T02:52:26.712Z,10.30
2022-09-22T02:54:55.343Z,10.88
2022-09-22T02:57:26.636Z,10.93
2022-09-22T02:59:54.644Z,11.40
2022-09-22T03:02:25.622Z,11.63
2022-09-22T03:04:53.881Z,11.63
2022-09-22T03:07:23.233Z,11.52
2022-09-22T03:09:51.328Z,11.50
2022-09-22T03:12:19.703Z,10.75
2022-09-22T03:14:47.803Z,12.00
2022-09-22T03:17:15.776Z,11.95
2022-09-22T03:19:43.809Z,12.85
2022-09-22T03:22:11.772Z,12.60
2022-09-22T03:24:41.219Z,13.20
2022-09-22T03:27:09.236Z,12.07
2022-09-22T03:29:37.252Z,12.35
2022-09-22T03:32:05.299Z,13.05
2022-09-22T03:34:33.512Z,13.05
2022-09-22T03:37:01.447Z,12.52
2022-09-22T03:39:29.449Z,12.95
2022-09-22T03:41:58.869Z,13.60
2022-09-22T03:44:27.167Z,13.18
2022-09-22T03:46:55.143Z,12.82
2022-09-22T03:49:23.176Z,13.70
2022-09-22T03:51:51.223Z,14.07
2022-09-22T03:54:19.323Z,14.63
2022-09-22T03:56:47.305Z,14.32
2022-09-22T03:59:17.110Z,14.43
2022-09-22T04:01:45.244Z,13.02
2022-09-22T04:04:16.582Z,13.63
2022-09-22T04:06:44.584Z,13.05
2022-09-22T04:09:12.668Z,13.57
2022-09-22T04:11:40.862Z,13.25
2022-09-22T04:14:08.841Z,13.05
2022-09-22T04:16:42.572Z,13.98
2022-09-22T04:19:10.753Z,13.63
2022-09-22T04:21:38.765Z,13.38
2022-09-22T04:24:07.651Z,12.60
2022-09-22T04:26:35.613Z,12.55
2022-09-22T04:29:06.989Z,13.57
2022-09-22T04:31:35.105Z,13.02
2022-09-22T04:34:07.585Z,14.07
2022-09-22T04:36:35.853Z,12.48
2022-09-22T04:39:04.303Z,13.15
2022-09-22T04:41:33.246Z,12.65
2022-09-22T04:44:04.397Z,13.55
2022-09-22T04:46:32.502Z,13.45
2022-09-22T04:49:01.004Z,13.55
2022-09-22T04:51:30.571Z,13.75
2022-09-22T04:53:58.554Z,12.70
2022-09-22T04:56:26.645Z,13.52
2022-09-22T04:58:54.632Z,13.93
2022-09-22T05:01:22.755Z,13.20
2022-09-22T05:03:54.296Z,14.32
2022-09-22T05:06:22.495Z,13.63
2022-09-22T05:08:51.848Z,14.45
2022-09-22T05:11:23.774Z,13.13
2022-09-22T05:13:53.357Z,13.70
2022-09-22T05:16:21.324Z,13.55
2022-09-22T05:18:52.378Z,13.57
2022-09-22T05:21:20.675Z,13.45
2022-09-22T05:23:48.813Z,13.85
2022-09-22T05:26:18.224Z,13.50
2022-09-22T05:28:51.647Z,13.23
2022-09-22T05:31:19.827Z,12.82
2022-09-22T05:33:47.886Z,13.65
2022-09-22T05:36:16.121Z,12.88
2022-09-22T05:38:44.341Z,14.23
2022-09-22T05:41:12.376Z,12.57
2022-09-22T05:43:41.658Z,13.48
2022-09-22T05:46:09.793Z,13.15
2022-09-22T05:48:37.995Z,12.50
2022-09-22T05:51:06.059Z,13.02
2022-09-22T05:53:34.129Z,13.10
2022-09-22T05:56:02.553Z,12.73
2022-09-22T05:58:30.595Z,13.50
2022-09-22T06:01:00.275Z,13.38
2022-09-22T06:03:28.338Z,13.10
2022-09-22T06:05:56.449Z,13.38
2022-09-22T06:08:24.793Z,12.63
2022-09-22T06:10:52.874Z,13.68
2022-09-22T06:13:20.960Z,13.07
2022-09-22T06:15:49.181Z,15.90
2022-09-22T06:18:24.136Z,13.23
2022-09-22T06:20:52.869Z,15.10
2022-09-22T06:23:20.890Z,13.55
2022-09-22T06:25:57.945Z,13.68
2022-09-22T06:28:26.047Z,13.90
2022-09-22T06:30:54.034Z,13.18
2022-09-22T06:33:24.043Z,13.23
2022-09-22T06:35:52.070Z,12.77
2022-09-22T06:38:20.223Z,13.38
2022-09-22T06:40:48.329Z,13.00
2022-09-22T06:43:22.799Z,13.45
2022-09-22T06:45:52.311Z,13.77
2022-09-22T06:48:23.748Z,13.77
2022-09-22T06:50:54.756Z,13.57
2022-09-22T06:53:27.027Z,13.63
2022-09-22T06:56:02.110Z,13.48
2022-09-22T06:58:38.588Z,12.73
2022-09-22T07:01:15.481Z,13.40
2022-09-22T07:03:44.544Z,12.85
2022-09-22T07:06:20.331Z,13.30
2022-09-22T07:08:50.329Z,14.15
2022-09-22T07:11:23.883Z,11.57
2022-09-22T07:13:53.506Z,13.65
2022-09-22T07:16:23.463Z,13.05
2022-09-22T07:18:53.146Z,13.60
2022-09-22T07:21:24.711Z,12.50
2022-09-22T07:23:55.718Z,12.30
2022-09-22T07:26:26.573Z,13.02
2022-09-22T07:28:56.216Z,13.55
2022-09-22T07:31:28.581Z,13.15
2022-09-22T07:34:00.351Z,13.13
2022-09-22T07:36:31.264Z,12.68
2022-09-22T07:39:05.197Z,12.07
2022-09-22T07:41:41.445Z,12.30
2022-09-22T07:44:28.188Z,11.80
2022-09-22T07:46:56.351Z,13.77
2022-09-22T07:49:24.450Z,14.85
2022-09-22T07:51:55.142Z,14.43
2022-09-22T07:54:24.245Z,15.85
2022-09-22T07:56:58.938Z,14.98
2022-09-22T07:59:27.916Z,15.23
2022-09-22T08:01:56.145Z,15.40
2022-09-22T08:04:26.493Z,14.98
2022-09-22T08:06:56.504Z,14.32
2022-09-22T08:09:25.730Z,15.20
2022-09-22T08:11:54.116Z,13.32
2022-09-22T08:14:23.967Z,14.82
2022-09-22T08:16:53.519Z,13.85
2022-09-22T08:19:24.377Z,13.68
2022-09-22T08:21:56.684Z,12.38
2022-09-22T08:24:24.924Z,12.25
2022-09-22T08:26:55.844Z,12.48
2022-09-22T08:29:24.475Z,10.88
2022-09-22T08:31:52.599Z,9.85
2022-09-22T08:34:21.899Z,10.82
2022-09-22T08:36:49.978Z,9.00
2022-09-22T08:39:19.867Z,7.80
2022-09-22T08:42:08.058Z,8.55
2022-09-22T08:44:41.902Z,8.27
2022-09-22T08:47:17.400Z,6.95
2022-09-22T08:50:05.948Z,6.10
2022-09-22T08:52:39.919Z,6.82
2022-09-22T08:55:19.437Z,6.32
2022-09-22T08:58:02.087Z,5.90
2022-09-22T09:00:41.922Z,5.70
2022-09-22T09:03:27.783Z,5.10
2022-09-22T09:06:04.924Z,4.82
2022-09-22T09:09:04.986Z,4.82
2022-09-22T09:11:49.838Z,4.60
2022-09-22T09:14:35.005Z,4.50
2022-09-22T09:17:09.533Z,4.53
2022-09-22T09:19:42.340Z,4.00
2022-09-22T09:22:19.061Z,3.70
2022-09-22T09:27:44.461Z,3.58
2022-09-22T09:30:17.974Z,3.17
2022-09-22T09:32:51.369Z,3.20
2022-09-22T09:35:26.677Z,3.13
2022-09-22T09:37:58.794Z,3.17
2022-09-22T09:40:27.733Z,3.08
2022-09-22T09:43:03.260Z,2.72
2022-09-22T09:45:39.330Z,2.70
2022-09-22T09:48:20.969Z,2.90
2022-09-22T09:50:49.169Z,2.78
2022-09-22T09:53:31.238Z,2.95
2022-09-22T09:55:59.851Z,2.80
2022-09-22T09:58:49.151Z,2.50
2022-09-22T10:01:17.383Z,2.33
2022-09-22T10:03:48.251Z,2.50
2022-09-22T10:06:25.298Z,3.10
2022-09-22T10:08:53.780Z,3.28
2022-09-22T10:11:32.742Z,2.75
2022-09-22T10:14:02.229Z,2.50
2022-09-22T10:16:33.582Z,2.30
2022-09-22T10:19:23.056Z,2.20
2022-09-22T10:21:51.320Z,2.60
2022-09-22T10:24:29.619Z,2.90
2022-09-22T10:26:57.723Z,2.80
2022-09-22T10:29:27.779Z,2.30
2022-09-22T10:32:05.257Z,2.40
2022-09-22T10:34:35.986Z,2.47
2022-09-22T10:37:10.594Z,2.00
2022-09-22T10:39:44.931Z,2.03
2022-09-22T10:42:25.807Z,2.00
2022-09-22T10:45:01.467Z,2.20
2022-09-22T10:47:39.669Z,2.00
2022-09-22T10:50:38.725Z,2.10
2022-09-22T10:53:31.235Z,2.15
2022-09-22T10:56:08.393Z,1.70
2022-09-22T10:58:54.403Z,1.60
2022-09-22T11:01:38.537Z,1.33
2022-09-22T11:04:24.713Z,1.42
2022-09-22T11:07:39.222Z,1.13
2022-09-22T11:10:37.464Z,1.40
2022-09-22T11:13:16.629Z,1.20
2022-09-22T11:16:03.459Z,1.42
2022-09-22T11:18:45.201Z,1.27
2022-09-22T11:21:31.435Z,1.50
2022-09-22T11:24:15.100Z,1.60
2022-09-22T11:26:52.837Z,1.70
2022-09-22T11:30:01.521Z,1.30
2022-09-22T11:32:53.706Z,1.55
2022-09-22T11:35:41.294Z,1.40
2022-09-22T11:38:26.765Z,1.77
2022-09-22T11:41:07.210Z,1.40
2022-09-22T11:43:58.490Z,1.45
2022-09-22T11:46:38.369Z,1.42
2022-09-22T11:49:18.872Z,1.42
2022-09-22T11:52:01.668Z,1.90
2022-09-22T11:54:49.647Z,1.73
2022-09-22T11:57:23.782Z,1.80
2022-09-22T11:59:54.492Z,1.95
2022-09-22T12:02:27.760Z,1.70
2022-09-22T12:05:00.393Z,1.88
2022-09-22T12:07:32.733Z,1.60
2022-09-22T12:10:04.116Z,1.58
2022-09-22T12:12:33.308Z,1.90
2022-09-22T12:15:10.689Z,1.33
2022-09-22T12:17:47.876Z,1.75
2022-09-22T12:20:31.019Z,1.50
2022-09-22T12:23:20.497Z,1.67
2022-09-22T12:25:52.009Z,1.70
2022-09-22T12:28:24.212Z,1.90
2022-09-22T12:31:05.129Z,1.55
2022-09-22T12:33:35.275Z,1.77
2022-09-22T12:36:04.601Z,2.00
2022-09-22T12:38:35.068Z,2.03
2022-09-22T12:41:04.388Z,1.80
2022-09-22T12:43:34.333Z,2.08
2022-09-22T12:46:07.446Z,2.08
2022-09-22T12:48:38.246Z,1.95
2022-09-22T12:51:31.323Z,2.10
2022-09-22T12:54:29.823Z,2.10
2022-09-22T12:57:00.324Z,2.10
2022-09-22T12:59:57.915Z,1.90
2022-09-22T13:02:31.333Z,1.88
2022-09-22T13:05:46.818Z,1.92
2022-09-22T13:08:47.977Z,1.80
2022-09-22T13:11:17.325Z,1.80
2022-09-22T13:13:46.843Z,1.90
2022-09-22T13:16:37.982Z,1.90
2022-09-22T13:19:11.546Z,1.98
2022-09-22T13:21:40.299Z,2.20
2022-09-22T13:24:25.103Z,2.28
2022-09-22T13:27:06.052Z,2.60
2022-09-22T13:29:34.994Z,2.28
2022-09-22T13:32:18.574Z,2.25
2022-09-22T13:34:46.944Z,2.53
2022-09-22T13:37:24.315Z,2.10
2022-09-22T13:39:54.844Z,2.05
2022-09-22T13:42:31.506Z,2.45
2022-09-22T13:45:03.672Z,2.30
2022-09-22T13:47:31.999Z,2.65
2022-09-22T13:50:05.799Z,2.42
2022-09-22T13:52:38.379Z,2.22
2022-09-22T13:55:11.026Z,2.35
2022-09-22T13:57:41.480Z,2.65
2022-09-22T14:00:18.535Z,2.10
2022-09-22T14:02:46.708Z,2.15
2022-09-22T14:05:20.893Z,2.45
2022-09-22T14:08:10.732Z,2.70
2022-09-22T14:10:38.199Z,2.70
2022-09-22T14:13:36.827Z,2.70
2022-09-22T14:16:10.655Z,2.60
2022-09-22T14:18:43.929Z,3.00
2022-09-22T14:21:12.837Z,2.42
2022-09-22T14:23:45.934Z,2.60
2022-09-22T14:26:33.636Z,2.40
2022-09-22T14:29:16.962Z,2.63
2022-09-22T14:31:48.386Z,2.42
2022-09-22T14:34:24.513Z,2.60
2022-09-22T14:36:54.716Z,2.40
2022-09-22T14:39:31.776Z,2.33
2022-09-22T14:42:09.401Z,2.60
2022-09-22T14:44:47.396Z,2.30
2022-09-22T14:47:27.162Z,2.28
2022-09-22T14:50:09.536Z,2.40
2022-09-22T14:52:41.514Z,2.20
2022-09-22T14:55:17.392Z,2.35
2022-09-22T14:57:48.566Z,2.20
2022-09-22T15:00:37.367Z,2.33
2022-09-22T15:03:16.604Z,2.05
2022-09-22T15:05:45.990Z,2.47
2022-09-22T15:08:18.249Z,2.10
2022-09-22T15:10:53.929Z,2.40
2022-09-22T15:13:38.842Z,2.22
2022-09-22T15:16:46.150Z,2.40
2022-09-22T15:19:14.289Z,2.22
2022-09-22T15:21:46.210Z,2.10
2022-09-22T15:24:15.595Z,2.25
2022-09-22T15:26:44.291Z,2.20
2022-09-22T15:29:14.796Z,2.30
2022-09-22T15:31:44.259Z,2.42
2022-09-22T15:34:16.766Z,2.40
2022-09-22T15:36:48.935Z,2.38
2022-09-22T15:39:21.421Z,1.98
2022-09-22T15:41:49.879Z,2.42
2022-09-22T15:44:18.039Z,2.50
2022-09-22T15:46:51.622Z,2.58
2022-09-22T15:49:23.655Z,2.90
2022-09-22T15:51:51.987Z,2.70
2022-09-22T15:54:22.183Z,3.10
2022-09-22T15:56:55.774Z,2.20
2022-09-22T15:59:28.028Z,2.05
2022-09-22T16:01:59.513Z,1.70
2022-09-22T16:04:29.652Z,1.65
2022-09-22T16:07:02.788Z,1.70
2022-09-22T16:09:31.937Z,1.98
2022-09-22T16:11:59.980Z,1.92
2022-09-22T16:14:28.197Z,1.75
2022-09-22T16:17:00.489Z,1.60
2022-09-22T16:19:32.005Z,1.77
2022-09-22T16:21:59.986Z,1.85
2022-09-22T16:24:29.063Z,1.73
2022-09-22T16:26:57.184Z,1.98
2022-09-22T16:29:25.637Z,1.58
2022-09-22T16:31:54.192Z,1.67
2022-09-22T16:34:23.804Z,2.00
2022-09-22T16:36:54.944Z,1.70
2022-09-22T16:39:23.714Z,1.92
2022-09-22T16:41:51.809Z,1.98
2022-09-22T16:44:22.033Z,1.80
2022-09-22T16:46:50.212Z,1.80
2022-09-22T16:49:20.332Z,1.90
2022-09-22T16:51:51.079Z,2.28
2022-09-22T16:54:19.864Z,2.45
2022-09-22T16:56:54.042Z,2.28
2022-09-22T16:59:23.723Z,2.20
2022-09-22T17:01:52.025Z,2.63
2022-09-22T17:04:21.008Z,2.35
2022-09-22T17:06:54.887Z,2.42
2022-09-22T17:09:23.202Z,2.50
2022-09-22T17:11:51.344Z,2.88
2022-09-22T17:14:22.100Z,3.00
2022-09-22T17:16:52.269Z,2.70
2022-09-22T17:19:24.379Z,3.10
2022-09-22T17:21:56.302Z,2.75
2022-09-22T17:24:26.048Z,3.20
2022-09-22T17:26:55.269Z,3.58
2022-09-22T17:29:25.864Z,3.08
2022-09-22T17:31:56.525Z,3.53
2022-09-22T17:34:25.287Z,3.17
2022-09-22T17:36:55.653Z,3.40
2022-09-22T17:39:24.078Z,4.03
2022-09-22T17:41:52.143Z,3.33
2022-09-22T17:44:21.719Z,3.50
2022-09-22T17:47:08.265Z,3.72
2022-09-22T17:49:53.991Z,3.92
2022-09-22T17:52:41.446Z,3.35
2022-09-22T17:55:16.054Z,3.72
2022-09-22T17:57:45.763Z,3.47
2022-09-22T18:00:16.024Z,4.00
2022-09-22T18:02:44.919Z,3.58
2022-09-22T18:05:14.945Z,3.22
2022-09-22T18:07:44.470Z,4.05
2022-09-22T18:10:14.886Z,4.32
2022-09-22T18:12:43.528Z,3.53
2022-09-22T18:15:14.056Z,4.10
2022-09-22T18:17:43.465Z,3.95
2022-09-22T18:20:13.688Z,4.63
2022-09-22T18:22:48.272Z,4.20
2022-09-22T18:25:19.255Z,3.40
2022-09-22T18:27:48.558Z,3.60
2022-09-22T18:30:19.462Z,3.53
2022-09-22T18:32:51.554Z,3.40
2022-09-22T18:35:20.177Z,3.13
2022-09-22T18:37:51.277Z,3.40
2022-09-22T18:40:19.490Z,3.10
2022-09-22T18:42:47.617Z,3.15
2022-09-22T18:45:15.850Z,3.05
2022-09-22T18:47:44.182Z,3.15
2022-09-22T18:50:13.189Z,3.88
2022-09-22T18:52:43.143Z,3.25
2022-09-22T18:55:18.377Z,3.38
2022-09-22T18:57:47.535Z,3.80
2022-09-22T19:00:16.571Z,3.60
2022-09-22T19:02:45.121Z,3.85
2022-09-22T19:05:16.524Z,3.88
2022-09-22T19:07:47.741Z,3.75
2022-09-22T19:10:21.921Z,4.50
2022-09-22T19:12:50.975Z,3.88
2022-09-22T19:15:19.670Z,4.47
2022-09-22T19:17:49.887Z,4.05
2022-09-22T19:20:21.020Z,5.15
2022-09-22T19:22:50.664Z,4.40
2022-09-22T19:25:21.555Z,4.75
2022-09-22T19:27:50.147Z,5.05
2022-09-22T19:30:22.373Z,5.00
2022-09-22T19:32:52.234Z,5.25
2022-09-22T19:35:20.545Z,4.95
2022-09-22T19:37:48.737Z,5.32
2022-09-22T19:40:19.039Z,6.05
2022-09-22T19:42:52.890Z,5.45
2022-09-22T19:45:25.527Z,5.70
2022-09-22T19:47:56.286Z,6.13
2022-09-22T19:50:24.498Z,6.20
2022-09-22T19:52:55.424Z,5.90
2022-09-22T19:55:23.510Z,5.60
2022-09-22T19:57:53.082Z,5.95
2022-09-22T20:00:26.329Z,5.97
2022-09-22T20:02:58.785Z,6.10
2022-09-22T20:05:29.227Z,5.88
2022-09-22T20:07:57.303Z,5.93
2022-09-22T20:10:28.758Z,5.00
2022-09-22T20:12:58.653Z,5.53
2022-09-22T20:15:28.043Z,5.40
2022-09-22T20:17:56.135Z,5.25
2022-09-22T20:20:32.125Z,5.55
2022-09-22T20:23:01.118Z,5.65
2022-09-22T20:25:31.653Z,5.00
2022-09-22T20:28:01.122Z,5.05
2022-09-22T20:30:29.091Z,6.03
2022-09-22T20:32:57.111Z,5.28
2022-09-22T20:35:25.420Z,5.50
2022-09-22T20:37:59.266Z,5.70
2022-09-22T20:40:29.266Z,5.90
2022-09-22T20:42:58.130Z,5.47
2022-09-22T20:45:28.241Z,5.50
2022-09-22T20:47:56.301Z,5.28
2022-09-22T20:50:24.585Z,5.03
2022-09-22T20:52:52.570Z,5.00
2022-09-22T20:55:22.113Z,5.53
2022-09-22T20:57:50.284Z,5.28
2022-09-22T21:00:18.371Z,5.32
2022-09-22T21:02:47.883Z,5.22
2022-09-22T21:05:16.140Z,5.28
2022-09-22T21:07:44.126Z,5.30
2022-09-22T21:10:29.557Z,5.70
2022-09-22T21:12:58.595Z,5.25
2022-09-22T21:15:26.654Z,6.32
2022-09-22T21:17:56.181Z,5.57
2022-09-22T21:20:24.183Z,7.00
2022-09-22T21:22:52.864Z,6.65
2022-09-22T21:25:20.897Z,5.72
2022-09-22T21:27:49.008Z,6.68
2022-09-22T21:30:17.082Z,6.13
2022-09-22T21:32:45.196Z,7.10
2022-09-22T21:35:16.860Z,7.40
2022-09-22T21:37:45.705Z,6.97
2022-09-22T21:40:14.142Z,7.85
2022-09-22T21:42:42.189Z,7.55
2022-09-22T21:45:10.846Z,6.82
2022-09-22T21:47:39.039Z,6.40
2022-09-22T21:50:08.034Z,5.95
2022-09-22T21:52:38.602Z,6.75
2022-09-22T21:55:07.784Z,6.00
2022-09-22T21:57:35.973Z,6.30
2022-09-22T22:00:06.538Z,5.78
2022-09-22T22:02:53.834Z,5.60
2022-09-22T22:05:21.929Z,5.65
2022-09-22T22:07:51.563Z,5.00
2022-09-22T22:10:19.686Z,5.22
2022-09-22T22:12:47.637Z,5.65
2022-09-22T22:15:15.867Z,4.95
2022-09-22T22:17:45.173Z,5.35
2022-09-22T22:20:13.197Z,5.60
2022-09-22T22:22:41.153Z,5.68
2022-09-22T22:25:17.936Z,5.80
2022-09-22T22:27:46.596Z,5.85
2022-09-22T22:30:14.680Z,5.60
2022-09-22T22:32:43.107Z,5.60
2022-09-22T22:35:11.709Z,4.93
2022-09-22T22:45:50.971Z,5.60
2022-09-22T22:48:19.278Z,5.47
2022-09-22T22:50:47.341Z,5.28
2022-09-22T22:53:18.809Z,5.82
2022-09-22T22:55:58.399Z,6.35
2022-09-22T22:58:28.935Z,5.80
2022-09-22T23:01:07.977Z,5.72
2022-09-22T23:03:36.242Z,5.80
2022-09-22T23:06:04.956Z,5.63
2022-09-22T23:08:36.970Z,5.68
2022-09-22T23:11:07.574Z,5.72
2022-09-22T23:13:35.565Z,5.63
2022-09-22T23:16:07.409Z,5.40
2022-09-22T23:18:37.962Z,6.35
2022-09-22T23:21:06.852Z,5.75
2022-09-22T23:23:35.645Z,6.10
2022-09-22T23:26:05.469Z,5.95
2022-09-22T23:28:35.082Z,5.88
2022-09-22T23:31:08.564Z,5.80
2022-09-22T23:33:37.527Z,5.82
2022-09-22T23:36:06.805Z,6.00
2022-09-22T23:38:37.096Z,5.68
2022-09-22T23:41:06.263Z,6.43
2022-09-22T23:43:34.527Z,6.65
2022-09-22T23:46:04.766Z,6.15
2022-09-22T23:48:34.635Z,6.38
2022-09-22T23:51:03.581Z,6.93
2022-09-22T23:53:34.327Z,6.82
2022-09-22T23:56:03.438Z,7.25
2022-09-22T23:58:32.583Z,7.70
